sensor_id;sensor_type;location;lat;lon;timestamp;pressure;altitude;pressure_sealevel;temperature;humidity
60099;BME280;62818;49.394;8.686;2023-03-08T00:00:17;99021.06;;;5.69;59.16
60099;BME280;62818;49.394;8.686;2023-03-08T00:01:20;99021.88;;;5.69;58.80
60099;BME280;62818;49.394;8.686;2023-03-08T00:02:22;99032.09;;;5.64;59.19
60099;BME280;62818;49.394;8.686;2023-03-08T00:03:23;99017.16;;;5.65;59.18
60099;BME280;62818;49.394;8.686;2023-03-08T00:04:23;99020.63;;;5.65;58.58
60099;BME280;62818;49.394;8.686;2023-03-08T00:05:24;99024.31;;;5.71;58.95
60099;BME280;62818;49.394;8.686;2023-03-08T00:06:25;99019.91;;;5.71;58.85
60099;BME280;62818;49.394;8.686;2023-03-08T00:07:26;99041.66;;;5.65;58.84
60099;BME280;62818;49.394;8.686;2023-03-08T00:08:27;99026.50;;;5.67;58.60
60099;BME280;62818;49.394;8.686;2023-03-08T00:09:27;99026.84;;;5.64;58.96
60099;BME280;62818;49.394;8.686;2023-03-08T00:10:28;99014.72;;;5.63;59.07
60099;BME280;62818;49.394;8.686;2023-03-08T00:11:29;99033.28;;;5.62;58.78
60099;BME280;62818;49.394;8.686;2023-03-08T00:12:29;99026.84;;;5.64;59.08
60099;BME280;62818;49.394;8.686;2023-03-08T00:13:30;99034.56;;;5.66;58.89
60099;BME280;62818;49.394;8.686;2023-03-08T00:14:31;99030.50;;;5.63;58.84
60099;BME280;62818;49.394;8.686;2023-03-08T00:15:32;99042.63;;;5.64;59.09
60099;BME280;62818;49.394;8.686;2023-03-08T00:16:32;99030.13;;;5.66;59.08
60099;BME280;62818;49.394;8.686;2023-03-08T00:17:35;99026.84;;;5.64;59.11
60099;BME280;62818;49.394;8.686;2023-03-08T00:18:36;99030.50;;;5.63;59.18
60099;BME280;62818;49.394;8.686;2023-03-08T00:19:37;99032.09;;;5.64;58.89
60099;BME280;62818;49.394;8.686;2023-03-08T00:20:38;99030.41;;;5.71;59.03
60099;BME280;62818;49.394;8.686;2023-03-08T00:21:38;99032.94;;;5.65;59.12
60099;BME280;62818;49.394;8.686;2023-03-08T00:22:40;99036.28;;;5.59;59.08
60099;BME280;62818;49.394;8.686;2023-03-08T00:23:42;99029.22;;;5.59;59.07
60099;BME280;62818;49.394;8.686;2023-03-08T00:24:43;99033.84;;;5.57;59.34
60099;BME280;62818;49.394;8.686;2023-03-08T00:25:43;99036.81;;;5.54;59.52
60099;BME280;62818;49.394;8.686;2023-03-08T00:26:44;99034.00;;;5.56;59.02
60099;BME280;62818;49.394;8.686;2023-03-08T00:27:45;99029.22;;;5.59;59.13
60099;BME280;62818;49.394;8.686;2023-03-08T00:28:46;99036.47;;;5.57;59.01
60099;BME280;62818;49.394;8.686;2023-03-08T00:29:47;99021.38;;;5.51;59.52
60099;BME280;62818;49.394;8.686;2023-03-08T00:30:55;99018.41;;;5.54;59.71
60099;BME280;62818;49.394;8.686;2023-03-08T00:32:00;99027.91;;;5.55;59.62
60099;BME280;62818;49.394;8.686;2023-03-08T00:33:01;99024.31;;;5.56;59.53
60099;BME280;62818;49.394;8.686;2023-03-08T00:34:01;99025.47;;;5.54;59.22
60099;BME280;62818;49.394;8.686;2023-03-08T00:35:02;99026.09;;;5.56;59.56
60099;BME280;62818;49.394;8.686;2023-03-08T00:36:16;99020.31;;;5.60;59.84
60099;BME280;62818;49.394;8.686;2023-03-08T00:37:19;99032.38;;;5.55;59.49
60099;BME280;62818;49.394;8.686;2023-03-08T00:38:19;99014.75;;;5.55;59.85
60099;BME280;62818;49.394;8.686;2023-03-08T00:39:20;99017.94;;;5.51;59.83
60099;BME280;62818;49.394;8.686;2023-03-08T00:40:20;99011.50;;;5.53;59.66
60099;BME280;62818;49.394;8.686;2023-03-08T00:41:21;99002.81;;;5.53;59.80
60099;BME280;62818;49.394;8.686;2023-03-08T00:42:23;99008.50;;;5.42;60.07
60099;BME280;62818;49.394;8.686;2023-03-08T00:43:24;99008.59;;;5.48;60.37
60099;BME280;62818;49.394;8.686;2023-03-08T00:44:25;99012.03;;;5.49;60.30
60099;BME280;62818;49.394;8.686;2023-03-08T00:45:26;99006.44;;;5.52;60.19
60099;BME280;62818;49.394;8.686;2023-03-08T00:46:26;99006.72;;;5.57;59.97
60099;BME280;62818;49.394;8.686;2023-03-08T00:47:27;99007.25;;;5.52;60.06
60099;BME280;62818;49.394;8.686;2023-03-08T00:48:27;98991.81;;;5.49;60.46
60099;BME280;62818;49.394;8.686;2023-03-08T00:49:28;98995.47;;;5.48;60.20
60099;BME280;62818;49.394;8.686;2023-03-08T00:50:28;98985.75;;;5.49;60.35
60099;BME280;62818;49.394;8.686;2023-03-08T00:51:29;98978.75;;;5.41;61.11
60099;BME280;62818;49.394;8.686;2023-03-08T00:52:29;98989.38;;;5.48;60.66
60099;BME280;62818;49.394;8.686;2023-03-08T00:53:30;98983.31;;;5.47;60.87
60099;BME280;62818;49.394;8.686;2023-03-08T00:54:31;98986.28;;;5.44;61.00
60099;BME280;62818;49.394;8.686;2023-03-08T00:55:31;98991.19;;;5.47;60.70
60099;BME280;62818;49.394;8.686;2023-03-08T00:56:32;98997.78;;;5.43;60.59
60099;BME280;62818;49.394;8.686;2023-03-08T00:57:32;98998.78;;;5.42;60.89
60099;BME280;62818;49.394;8.686;2023-03-08T00:58:33;99000.72;;;5.48;60.84
60099;BME280;62818;49.394;8.686;2023-03-08T00:59:35;99002.22;;;5.43;61.24
60099;BME280;62818;49.394;8.686;2023-03-08T01:00:35;98997.47;;;5.46;61.02
60099;BME280;62818;49.394;8.686;2023-03-08T01:01:36;98999.72;;;5.49;60.90
60099;BME280;62818;49.394;8.686;2023-03-08T01:02:37;98996.44;;;5.47;60.66
60099;BME280;62818;49.394;8.686;2023-03-08T01:03:40;98996.78;;;5.44;61.13
60099;BME280;62818;49.394;8.686;2023-03-08T01:04:40;98997.78;;;5.43;61.23
60099;BME280;62818;49.394;8.686;2023-03-08T01:05:45;98994.53;;;5.41;61.23
60099;BME280;62818;49.394;8.686;2023-03-08T01:06:48;98996.16;;;5.42;61.11
60099;BME280;62818;49.394;8.686;2023-03-08T01:07:48;98979.59;;;5.42;61.28
60099;BME280;62818;49.394;8.686;2023-03-08T01:08:49;98985.28;;;5.45;61.30
60099;BME280;62818;49.394;8.686;2023-03-08T01:09:53;98989.28;;;5.41;61.33
60099;BME280;62818;49.394;8.686;2023-03-08T01:10:57;98993.59;;;5.34;61.61
60099;BME280;62818;49.394;8.686;2023-03-08T01:11:58;98996.03;;;5.36;61.93
60099;BME280;62818;49.394;8.686;2023-03-08T01:12:59;98990.00;;;5.35;61.52
60099;BME280;62818;49.394;8.686;2023-03-08T01:13:59;98993.25;;;5.37;61.86
60099;BME280;62818;49.394;8.686;2023-03-08T01:15:01;98982.03;;;5.43;61.76
60099;BME280;62818;49.394;8.686;2023-03-08T01:16:02;98987.28;;;5.43;61.48
60099;BME280;62818;49.394;8.686;2023-03-08T01:17:03;98996.16;;;5.42;61.50
60099;BME280;62818;49.394;8.686;2023-03-08T01:18:04;98990.22;;;5.48;61.68
60099;BME280;62818;49.394;8.686;2023-03-08T01:19:05;98994.47;;;5.49;61.92
60099;BME280;62818;49.394;8.686;2023-03-08T01:20:06;98997.47;;;5.46;61.57
60099;BME280;62818;49.394;8.686;2023-03-08T01:21:09;98993.53;;;5.42;61.70
60099;BME280;62818;49.394;8.686;2023-03-08T01:22:10;98991.91;;;5.41;61.92
60099;BME280;62818;49.394;8.686;2023-03-08T01:23:11;98992.53;;;5.43;61.55
60099;BME280;62818;49.394;8.686;2023-03-08T01:24:11;98994.88;;;5.38;61.94
60099;BME280;62818;49.394;8.686;2023-03-08T01:25:12;98986.34;;;5.36;61.86
60099;BME280;62818;49.394;8.686;2023-03-08T01:26:15;98990.78;;;5.36;61.71
60099;BME280;62818;49.394;8.686;2023-03-08T01:27:17;98983.38;;;5.39;61.43
60099;BME280;62818;49.394;8.686;2023-03-08T01:28:17;98991.59;;;5.36;62.07
60099;BME280;62818;49.394;8.686;2023-03-08T01:29:18;98980.13;;;5.37;62.07
60099;BME280;62818;49.394;8.686;2023-03-08T01:30:18;98981.72;;;5.38;62.01
60099;BME280;62818;49.394;8.686;2023-03-08T01:31:22;98988.97;;;5.36;61.79
60099;BME280;62818;49.394;8.686;2023-03-08T01:32:25;98982.75;;;5.37;61.84
60099;BME280;62818;49.394;8.686;2023-03-08T01:33:25;98984.25;;;5.32;62.07
60099;BME280;62818;49.394;8.686;2023-03-08T01:34:26;98980.53;;;5.26;61.84
60099;BME280;62818;49.394;8.686;2023-03-08T01:35:26;98974.00;;;5.22;62.08
60099;BME280;62818;49.394;8.686;2023-03-08T01:36:27;98987.13;;;5.22;62.23
60099;BME280;62818;49.394;8.686;2023-03-08T01:37:31;98975.28;;;5.26;61.82
60099;BME280;62818;49.394;8.686;2023-03-08T01:38:31;98973.84;;;5.38;61.93
60099;BME280;62818;49.394;8.686;2023-03-08T01:39:32;98971.75;;;5.34;61.72
60099;BME280;62818;49.394;8.686;2023-03-08T01:40:32;98969.88;;;5.42;61.54
60099;BME280;62818;49.394;8.686;2023-03-08T01:41:33;98965.44;;;5.43;61.59
60099;BME280;62818;49.394;8.686;2023-03-08T01:42:36;98963.22;;;5.32;61.46
60099;BME280;62818;49.394;8.686;2023-03-08T01:43:38;98952.72;;;5.32;62.11
60099;BME280;62818;49.394;8.686;2023-03-08T01:46:04;98955.72;;;5.29;62.20
60099;BME280;62818;49.394;8.686;2023-03-08T01:47:25;98949.00;;;5.26;62.21
60099;BME280;62818;49.394;8.686;2023-03-08T01:48:32;98954.53;;;5.31;62.01
60099;BME280;62818;49.394;8.686;2023-03-08T01:49:36;98964.69;;;5.34;61.62
60099;BME280;62818;49.394;8.686;2023-03-08T01:50:38;98957.81;;;5.33;61.95
60099;BME280;62818;49.394;8.686;2023-03-08T01:51:46;98960.16;;;5.28;61.58
60099;BME280;62818;49.394;8.686;2023-03-08T01:53:02;98957.34;;;5.30;61.72
60099;BME280;62818;49.394;8.686;2023-03-08T01:54:11;98961.63;;;5.31;61.69
60099;BME280;62818;49.394;8.686;2023-03-08T01:55:14;98959.16;;;5.29;62.08
60099;BME280;62818;49.394;8.686;2023-03-08T01:56:18;98955.44;;;5.23;61.69
60099;BME280;62818;49.394;8.686;2023-03-08T01:57:32;98955.53;;;5.30;61.73
60099;BME280;62818;49.394;8.686;2023-03-08T01:58:34;98954.25;;;5.26;61.83
60099;BME280;62818;49.394;8.686;2023-03-08T01:59:34;98957.34;;;5.30;62.01
60099;BME280;62818;49.394;8.686;2023-03-08T02:00:36;98958.25;;;5.22;62.24
60099;BME280;62818;49.394;8.686;2023-03-08T02:01:39;98952.97;;;5.22;62.17
60099;BME280;62818;49.394;8.686;2023-03-08T02:02:41;98948.06;;;5.19;62.51
60099;BME280;62818;49.394;8.686;2023-03-08T02:04:03;98948.06;;;5.19;62.48
60099;BME280;62818;49.394;8.686;2023-03-08T02:05:05;98947.53;;;5.23;62.06
60099;BME280;62818;49.394;8.686;2023-03-08T02:06:07;98937.88;;;5.24;61.93
60099;BME280;62818;49.394;8.686;2023-03-08T02:07:08;98951.16;;;5.22;62.35
60099;BME280;62818;49.394;8.686;2023-03-08T02:08:09;98947.44;;;5.17;62.11
60099;BME280;62818;49.394;8.686;2023-03-08T02:09:10;98946.53;;;5.24;62.05
60099;BME280;62818;49.394;8.686;2023-03-08T02:10:12;98937.13;;;5.15;62.25
60099;BME280;62818;49.394;8.686;2023-03-08T02:11:14;98940.66;;;5.22;62.20
60099;BME280;62818;49.394;8.686;2023-03-08T02:12:17;98936.75;;;5.18;62.40
60099;BME280;62818;49.394;8.686;2023-03-08T02:13:19;98933.03;;;5.13;62.33
60099;BME280;62818;49.394;8.686;2023-03-08T02:14:20;98928.00;;;5.26;62.10
60099;BME280;62818;49.394;8.686;2023-03-08T02:15:21;98931.59;;;5.25;62.72
60099;BME280;62818;49.394;8.686;2023-03-08T02:16:22;98924.78;;;5.16;62.51
60099;BME280;62818;49.394;8.686;2023-03-08T02:17:22;98919.81;;;5.21;62.58
60099;BME280;62818;49.394;8.686;2023-03-08T02:18:24;98918.13;;;5.05;62.43
60099;BME280;62818;49.394;8.686;2023-03-08T02:19:33;98922.28;;;5.00;62.17
60099;BME280;62818;49.394;8.686;2023-03-08T02:20:40;98914.69;;;5.05;62.83
60099;BME280;62818;49.394;8.686;2023-03-08T02:21:41;98912.69;;;5.07;62.50
60099;BME280;62818;49.394;8.686;2023-03-08T02:22:42;98917.28;;;5.13;62.49
60099;BME280;62818;49.394;8.686;2023-03-08T02:23:44;98915.31;;;5.07;62.46
60099;BME280;62818;49.394;8.686;2023-03-08T02:24:44;98914.75;;;4.97;62.73
60099;BME280;62818;49.394;8.686;2023-03-08T02:25:56;98910.72;;;5.09;62.52
60099;BME280;62818;49.394;8.686;2023-03-08T02:27:08;98910.66;;;5.17;62.74
60099;BME280;62818;49.394;8.686;2023-03-08T02:28:12;98911.13;;;4.98;62.86
60099;BME280;62818;49.394;8.686;2023-03-08T02:29:13;98909.91;;;4.86;62.83
60099;BME280;62818;49.394;8.686;2023-03-08T02:30:16;98913.25;;;4.80;63.36
60099;BME280;62818;49.394;8.686;2023-03-08T02:31:22;98912.34;;;4.87;63.09
60099;BME280;62818;49.394;8.686;2023-03-08T02:32:23;98906.25;;;4.95;63.00
60099;BME280;62818;49.394;8.686;2023-03-08T02:33:23;98909.22;;;4.92;63.03
60099;BME280;62818;49.394;8.686;2023-03-08T02:34:24;98908.97;;;4.79;63.09
60099;BME280;62818;49.394;8.686;2023-03-08T02:35:25;98914.88;;;4.81;62.91
60099;BME280;62818;49.394;8.686;2023-03-08T02:36:25;98907.34;;;4.78;63.38
60099;BME280;62818;49.394;8.686;2023-03-08T02:37:26;98907.00;;;4.81;63.45
60099;BME280;62818;49.394;8.686;2023-03-08T02:38:27;98906.03;;;4.74;63.41
60099;BME280;62818;49.394;8.686;2023-03-08T02:39:28;98906.53;;;4.77;63.20
60099;BME280;62818;49.394;8.686;2023-03-08T02:40:29;98909.97;;;4.78;63.49
60099;BME280;62818;49.394;8.686;2023-03-08T02:41:29;98905.38;;;4.80;63.15
60099;BME280;62818;49.394;8.686;2023-03-08T02:42:30;98898.25;;;4.88;62.82
60099;BME280;62818;49.394;8.686;2023-03-08T02:43:30;98901.63;;;4.74;63.13
60099;BME280;62818;49.394;8.686;2023-03-08T02:44:31;98899.13;;;4.81;63.29
60099;BME280;62818;49.394;8.686;2023-03-08T02:45:32;98890.91;;;4.84;63.40
60099;BME280;62818;49.394;8.686;2023-03-08T02:46:33;98892.59;;;4.77;63.54
60099;BME280;62818;49.394;8.686;2023-03-08T02:47:34;98891.94;;;4.75;63.35
60099;BME280;62818;49.394;8.686;2023-03-08T02:48:34;98895.53;;;4.74;63.48
60099;BME280;62818;49.394;8.686;2023-03-08T02:49:35;98885.59;;;4.69;63.14
60099;BME280;62818;49.394;8.686;2023-03-08T02:50:35;98891.81;;;4.68;63.38
60099;BME280;62818;49.394;8.686;2023-03-08T02:51:36;98890.66;;;4.71;63.23
60099;BME280;62818;49.394;8.686;2023-03-08T02:52:36;98893.94;;;4.73;63.58
60099;BME280;62818;49.394;8.686;2023-03-08T02:53:37;98900.00;;;4.73;63.71
60099;BME280;62818;49.394;8.686;2023-03-08T02:54:37;98896.94;;;4.62;63.99
60099;BME280;62818;49.394;8.686;2023-03-08T02:55:38;98895.66;;;4.58;63.91
60099;BME280;62818;49.394;8.686;2023-03-08T02:56:39;98896.56;;;4.73;63.97
60099;BME280;62818;49.394;8.686;2023-03-08T02:57:39;98890.03;;;4.69;63.95
60099;BME280;62818;49.394;8.686;2023-03-08T02:58:40;98899.75;;;4.60;63.61
60099;BME280;62818;49.394;8.686;2023-03-08T02:59:40;98900.44;;;4.54;64.29
60099;BME280;62818;49.394;8.686;2023-03-08T03:00:41;98886.47;;;4.62;63.90
60099;BME280;62818;49.394;8.686;2023-03-08T03:01:41;98889.84;;;4.70;63.28
60099;BME280;62818;49.394;8.686;2023-03-08T03:02:42;98888.44;;;4.60;63.92
60099;BME280;62818;49.394;8.686;2023-03-08T03:03:42;98892.03;;;4.59;63.94
60099;BME280;62818;49.394;8.686;2023-03-08T03:04:43;98888.44;;;4.60;64.03
60099;BME280;62818;49.394;8.686;2023-03-08T03:05:44;98888.44;;;4.60;63.66
60099;BME280;62818;49.394;8.686;2023-03-08T03:06:44;98876.28;;;4.59;64.10
60099;BME280;62818;49.394;8.686;2023-03-08T03:07:45;98881.84;;;4.64;64.10
60099;BME280;62818;49.394;8.686;2023-03-08T03:08:46;98874.56;;;4.74;63.67
60099;BME280;62818;49.394;8.686;2023-03-08T03:09:47;98881.97;;;4.70;63.52
60099;BME280;62818;49.394;8.686;2023-03-08T03:10:48;98876.28;;;4.59;63.90
60099;BME280;62818;49.394;8.686;2023-03-08T03:11:48;98881.84;;;4.64;63.98
60099;BME280;62818;49.394;8.686;2023-03-08T03:12:49;98876.06;;;4.68;64.18
60099;BME280;62818;49.394;8.686;2023-03-08T03:13:57;98877.13;;;4.59;63.91
60099;BME280;62818;49.394;8.686;2023-03-08T03:15:04;98878.28;;;4.57;64.11
60099;BME280;62818;49.394;8.686;2023-03-08T03:16:10;98877.69;;;4.46;64.58
60099;BME280;62818;49.394;8.686;2023-03-08T03:17:15;98874.03;;;4.56;64.16
60099;BME280;62818;49.394;8.686;2023-03-08T03:18:16;98870.47;;;4.48;64.18
60099;BME280;62818;49.394;8.686;2023-03-08T03:19:16;98864.47;;;4.63;64.02
60099;BME280;62818;49.394;8.686;2023-03-08T03:20:17;98868.38;;;4.67;64.03
60099;BME280;62818;49.394;8.686;2023-03-08T03:21:18;98875.03;;;4.55;64.23
60099;BME280;62818;49.394;8.686;2023-03-08T03:22:18;98870.38;;;4.65;63.80
60099;BME280;62818;49.394;8.686;2023-03-08T03:23:19;98864.19;;;4.58;64.24
60099;BME280;62818;49.394;8.686;2023-03-08T03:24:19;98867.44;;;4.60;63.99
60099;BME280;62818;49.394;8.686;2023-03-08T03:25:20;98867.84;;;4.48;64.39
60099;BME280;62818;49.394;8.686;2023-03-08T03:26:23;98858.63;;;4.53;63.89
60099;BME280;62818;49.394;8.686;2023-03-08T03:27:24;98857.66;;;4.54;64.31
60099;BME280;62818;49.394;8.686;2023-03-08T03:28:25;98849.81;;;4.45;64.78
60099;BME280;62818;49.394;8.686;2023-03-08T03:29:25;98853.91;;;4.48;64.67
60099;BME280;62818;49.394;8.686;2023-03-08T03:30:25;98852.69;;;4.59;64.65
60099;BME280;62818;49.394;8.686;2023-03-08T03:31:26;98861.25;;;4.53;64.34
60099;BME280;62818;49.394;8.686;2023-03-08T03:32:27;98852.16;;;4.40;64.77
60099;BME280;62818;49.394;8.686;2023-03-08T03:33:27;98845.56;;;4.44;64.65
60099;BME280;62818;49.394;8.686;2023-03-08T03:34:28;98856.72;;;4.46;64.39
60099;BME280;62818;49.394;8.686;2023-03-08T03:35:36;98850.34;;;4.41;64.79
60099;BME280;62818;49.394;8.686;2023-03-08T03:36:37;98855.44;;;4.42;65.07
60099;BME280;62818;49.394;8.686;2023-03-08T03:37:38;98851.09;;;4.49;64.61
60099;BME280;62818;49.394;8.686;2023-03-08T03:38:39;98851.88;;;4.58;64.47
60099;BME280;62818;49.394;8.686;2023-03-08T03:39:39;98860.56;;;4.59;64.29
60099;BME280;62818;49.394;8.686;2023-03-08T03:40:40;98858.44;;;4.54;64.13
60099;BME280;62818;49.394;8.686;2023-03-08T03:41:40;98859.97;;;4.48;64.57
60099;BME280;62818;49.394;8.686;2023-03-08T03:42:41;98849.59;;;4.55;64.44
60099;BME280;62818;49.394;8.686;2023-03-08T03:43:42;98854.25;;;4.68;64.18
60099;BME280;62818;49.394;8.686;2023-03-08T03:44:43;98847.50;;;4.50;64.64
60099;BME280;62818;49.394;8.686;2023-03-08T03:45:54;98841.09;;;4.53;64.50
60099;BME280;62818;49.394;8.686;2023-03-08T03:46:55;98835.34;;;4.49;64.57
60099;BME280;62818;49.394;8.686;2023-03-08T03:47:56;98842.91;;;4.53;64.97
60099;BME280;62818;49.394;8.686;2023-03-08T03:48:57;98837.34;;;4.47;64.51
60099;BME280;62818;49.394;8.686;2023-03-08T03:49:57;98839.81;;;4.49;64.87
60099;BME280;62818;49.394;8.686;2023-03-08T03:51:06;98832.69;;;4.58;65.14
60099;BME280;62818;49.394;8.686;2023-03-08T03:52:09;98830.34;;;4.63;64.62
60099;BME280;62818;49.394;8.686;2023-03-08T03:53:10;98833.69;;;4.57;64.59
60099;BME280;62818;49.394;8.686;2023-03-08T03:54:10;98825.81;;;4.57;65.02
60099;BME280;62818;49.394;8.686;2023-03-08T03:55:11;98826.94;;;4.62;64.97
60099;BME280;62818;49.394;8.686;2023-03-08T03:56:13;98824.97;;;4.56;64.86
60099;BME280;62818;49.394;8.686;2023-03-08T03:57:16;98838.28;;;4.55;64.25
60099;BME280;62818;49.394;8.686;2023-03-08T03:58:19;98834.69;;;4.56;64.95
60099;BME280;62818;49.394;8.686;2023-03-08T03:59:20;98834.78;;;4.62;64.73
60099;BME280;62818;49.394;8.686;2023-03-08T04:00:21;98837.56;;;4.61;64.91
60099;BME280;62818;49.394;8.686;2023-03-08T04:01:25;98838.47;;;4.53;65.23
60099;BME280;62818;49.394;8.686;2023-03-08T04:02:27;98835.84;;;4.76;64.58
60099;BME280;62818;49.394;8.686;2023-03-08T04:03:28;98834.53;;;4.72;64.53
60099;BME280;62818;49.394;8.686;2023-03-08T04:04:28;98831.13;;;4.48;64.63
60099;BME280;62818;49.394;8.686;2023-03-08T04:05:29;98831.88;;;4.57;64.95
60099;BME280;62818;49.394;8.686;2023-03-08T04:06:32;98828.72;;;4.62;64.67
60099;BME280;62818;49.394;8.686;2023-03-08T04:07:33;98830.34;;;4.63;65.04
60099;BME280;62818;49.394;8.686;2023-03-08T04:08:34;98821.72;;;4.54;64.78
60099;BME280;62818;49.394;8.686;2023-03-08T04:09:41;98826.75;;;4.64;64.66
60099;BME280;62818;49.394;8.686;2023-03-08T04:10:41;98827.31;;;4.74;64.71
60099;BME280;62818;49.394;8.686;2023-03-08T04:11:42;98818.91;;;4.78;64.40
60099;BME280;62818;49.394;8.686;2023-03-08T04:12:47;98817.75;;;4.81;64.51
60099;BME280;62818;49.394;8.686;2023-03-08T04:13:49;98817.53;;;4.68;64.60
60099;BME280;62818;49.394;8.686;2023-03-08T04:14:49;98818.22;;;4.62;64.76
60099;BME280;62818;49.394;8.686;2023-03-08T04:15:52;98818.22;;;4.62;65.02
60099;BME280;62818;49.394;8.686;2023-03-08T04:16:52;98812.97;;;4.62;64.77
60099;BME280;62818;49.394;8.686;2023-03-08T04:17:53;98811.28;;;4.69;64.85
60099;BME280;62818;49.394;8.686;2023-03-08T04:18:55;98814.47;;;4.79;64.54
60099;BME280;62818;49.394;8.686;2023-03-08T04:19:58;98813.22;;;4.75;64.23
60099;BME280;62818;49.394;8.686;2023-03-08T04:20:58;98820.31;;;4.66;64.22
60099;BME280;62818;49.394;8.686;2023-03-08T04:21:59;98813.22;;;4.75;64.21
60099;BME280;62818;49.394;8.686;2023-03-08T04:22:59;98810.53;;;4.60;64.56
60099;BME280;62818;49.394;8.686;2023-03-08T04:24:00;98811.56;;;4.74;64.82
60099;BME280;62818;49.394;8.686;2023-03-08T04:25:01;98815.53;;;4.70;64.52
60099;BME280;62818;49.394;8.686;2023-03-08T04:26:03;98818.34;;;4.68;64.80
60099;BME280;62818;49.394;8.686;2023-03-08T04:27:04;98816.25;;;4.64;64.83
60099;BME280;62818;49.394;8.686;2023-03-08T04:28:04;98823.66;;;4.60;64.91
60099;BME280;62818;49.394;8.686;2023-03-08T04:29:05;98818.34;;;4.68;64.57
60099;BME280;62818;49.394;8.686;2023-03-08T04:30:06;98824.97;;;4.56;64.73
60099;BME280;62818;49.394;8.686;2023-03-08T04:31:17;98818.94;;;4.56;64.99
60099;BME280;62818;49.394;8.686;2023-03-08T04:32:18;98816.06;;;4.65;65.09
60099;BME280;62818;49.394;8.686;2023-03-08T04:33:19;98820.31;;;4.66;64.80
60099;BME280;62818;49.394;8.686;2023-03-08T04:34:20;98816.25;;;4.64;64.75
60099;BME280;62818;49.394;8.686;2023-03-08T04:35:21;98808.31;;;4.72;64.98
60099;BME280;62818;49.394;8.686;2023-03-08T04:36:22;98808.38;;;4.64;64.46
60099;BME280;62818;49.394;8.686;2023-03-08T04:37:23;98810.16;;;4.63;65.02
60099;BME280;62818;49.394;8.686;2023-03-08T04:38:24;98813.09;;;4.68;64.75
60099;BME280;62818;49.394;8.686;2023-03-08T04:39:25;98804.09;;;4.63;65.05
60099;BME280;62818;49.394;8.686;2023-03-08T04:40:25;98803.47;;;4.61;64.94
60099;BME280;62818;49.394;8.686;2023-03-08T04:41:26;98801.22;;;4.58;65.74
60099;BME280;62818;49.394;8.686;2023-03-08T04:42:26;98790.31;;;4.69;65.23
60099;BME280;62818;49.394;8.686;2023-03-08T04:43:28;98790.00;;;4.64;64.93
60099;BME280;62818;49.394;8.686;2023-03-08T04:44:28;98796.41;;;4.61;64.62
60099;BME280;62818;49.394;8.686;2023-03-08T04:45:29;98788.00;;;4.66;65.02
60099;BME280;62818;49.394;8.686;2023-03-08T04:46:33;98793.97;;;4.60;65.20
60099;BME280;62818;49.394;8.686;2023-03-08T04:47:33;98789.06;;;4.57;65.26
60099;BME280;62818;49.394;8.686;2023-03-08T04:48:34;98787.34;;;4.49;64.95
60099;BME280;62818;49.394;8.686;2023-03-08T04:49:35;98788.97;;;4.50;65.66
60099;BME280;62818;49.394;8.686;2023-03-08T04:50:35;98793.34;;;4.58;65.20
60099;BME280;62818;49.394;8.686;2023-03-08T04:51:38;98796.78;;;4.58;65.52
60099;BME280;62818;49.394;8.686;2023-03-08T04:52:38;98791.53;;;4.58;64.69
60099;BME280;62818;49.394;8.686;2023-03-08T04:53:39;98789.59;;;4.52;65.45
60099;BME280;62818;49.394;8.686;2023-03-08T04:54:43;98778.69;;;4.63;65.23
60099;BME280;62818;49.394;8.686;2023-03-08T04:55:43;98787.09;;;4.59;64.66
60099;BME280;62818;49.394;8.686;2023-03-08T04:56:44;98779.84;;;4.61;64.80
60099;BME280;62818;49.394;8.686;2023-03-08T04:57:44;98780.22;;;4.58;64.87
60099;BME280;62818;49.394;8.686;2023-03-08T04:58:45;98772.28;;;4.66;65.13
60099;BME280;62818;49.394;8.686;2023-03-08T04:59:46;98774.75;;;4.82;64.41
60099;BME280;62818;49.394;8.686;2023-03-08T05:00:47;98783.81;;;4.57;64.55
60099;BME280;62818;49.394;8.686;2023-03-08T05:01:47;98774.81;;;4.74;64.55
60099;BME280;62818;49.394;8.686;2023-03-08T05:02:48;98771.81;;;4.62;64.85
60099;BME280;62818;49.394;8.686;2023-03-08T05:03:51;98762.94;;;4.63;64.51
60099;BME280;62818;49.394;8.686;2023-03-08T05:04:52;98761.47;;;4.61;64.40
60099;BME280;62818;49.394;8.686;2023-03-08T05:05:54;98763.31;;;4.60;64.49
60099;BME280;62818;49.394;8.686;2023-03-08T05:06:55;98762.59;;;4.66;64.51
60099;BME280;62818;49.394;8.686;2023-03-08T05:07:55;98758.84;;;4.61;64.41
60099;BME280;62818;49.394;8.686;2023-03-08T05:08:56;98752.97;;;4.59;64.84
60099;BME280;62818;49.394;8.686;2023-03-08T05:09:56;98752.94;;;4.67;64.69
60099;BME280;62818;49.394;8.686;2023-03-08T05:10:59;98748.94;;;4.71;64.01
60099;BME280;62818;49.394;8.686;2023-03-08T05:12:00;98744.34;;;4.73;64.21
60099;BME280;62818;49.394;8.686;2023-03-08T05:13:01;98746.00;;;4.88;64.08
60099;BME280;62818;49.394;8.686;2023-03-08T05:14:01;98755.28;;;4.76;64.07
60099;BME280;62818;49.394;8.686;2023-03-08T05:15:02;98745.31;;;4.72;64.39
60099;BME280;62818;49.394;8.686;2023-03-08T05:16:04;98746.50;;;4.69;64.04
60099;BME280;62818;49.394;8.686;2023-03-08T05:17:06;98745.59;;;4.77;63.96
60099;BME280;62818;49.394;8.686;2023-03-08T05:18:07;98746.25;;;4.79;64.00
60099;BME280;62818;49.394;8.686;2023-03-08T05:19:07;98741.72;;;4.73;64.10
60099;BME280;62818;49.394;8.686;2023-03-08T05:20:09;98746.31;;;4.71;64.25
60099;BME280;62818;49.394;8.686;2023-03-08T05:21:13;98745.31;;;4.72;63.98
60099;BME280;62818;49.394;8.686;2023-03-08T05:22:15;98740.25;;;4.70;64.09
60099;BME280;62818;49.394;8.686;2023-03-08T05:23:15;98744.22;;;4.66;64.22
60099;BME280;62818;49.394;8.686;2023-03-08T05:24:16;98746.38;;;4.63;64.46
60099;BME280;62818;49.394;8.686;2023-03-08T05:25:16;98755.13;;;4.78;64.30
60099;BME280;62818;49.394;8.686;2023-03-08T05:26:17;98758.63;;;4.85;64.08
60099;BME280;62818;49.394;8.686;2023-03-08T05:27:18;98755.22;;;4.84;64.45
60099;BME280;62818;49.394;8.686;2023-03-08T05:28:19;98757.16;;;4.68;64.36
60099;BME280;62818;49.394;8.686;2023-03-08T05:29:21;98757.00;;;4.69;64.19
60099;BME280;62818;49.394;8.686;2023-03-08T05:30:22;98761.06;;;4.72;64.10
60099;BME280;62818;49.394;8.686;2023-03-08T05:31:22;98760.72;;;4.75;64.43
60099;BME280;62818;49.394;8.686;2023-03-08T05:32:23;98758.44;;;4.72;64.24